Time;durP1;ratioP1;P1;durP2;ratioP2;P2;SDS_P1;SDS_P2;PMS_P1;PMS_P2;Temp;Humidity;BMP_temperature;BMP_pressure;BME280_temperature;BME280_humidity;BME280_pressure;Samples;Min_cycle;Max_cycle;Signal;HPM_P1;HPM_P2
2022/05/14 00:00:53;;;;;;;;;;;;;;;;;;4993551;28;19926;-77
2022/05/14 00:03:19;;;;;;;;;;;;;;;;;;5008808;28;20448;-77
2022/05/14 00:05:45;;;;;;;;;;;;;;;;;;4993540;28;19929;-77
2022/05/14 00:08:12;;;;;;;;;;;;;;;;;;5007343;28;19922;-76
2022/05/14 00:13:24;;;;;;;;;;;;;;;;;;4971858;28;20543;-76
2022/05/14 00:15:50;;;;;;;;;;;;;;;;;;5008901;28;19928;-76
2022/05/14 00:18:16;;;;;;;;;;;;;;;;;;4992722;28;20360;-76
2022/05/14 00:20:42;;;;;;;;;;;;;;;;;;4993924;28;19921;-77
2022/05/14 00:23:08;;;;;;;;;;;;;;;;;;4993016;28;20351;-77
2022/05/14 00:25:34;;;;;;;;;;;;;;;;;;4993285;28;19929;-77
2022/05/14 00:28:00;;;;;;;;;;;;;;;;;;5007756;28;20001;-77
2022/05/14 00:30:26;;;;;;;;;;;;;;;;;;5007838;28;19922;-77
2022/05/14 00:32:52;;;;;;;;;;;;;;;;;;5008374;28;19922;-76
2022/05/14 00:35:18;;;;;;;;;;;;;;;;;;5007395;28;19977;-77
2022/05/14 00:37:44;;;;;;;;;;;;;;;;;;5008809;28;20359;-77
2022/05/14 00:40:10;;;;;;;;;;;;;;;;;;5008147;28;20272;-77
2022/05/14 00:42:36;;;;;;;;;;;;;;;;;;4992816;28;20250;-76
2022/05/14 00:45:02;;;;;;;;;;;;;;;;;;5007362;28;19921;-80
2022/05/14 00:47:28;;;;;;;;;;;;;;;;;;5008104;28;20137;-77
2022/05/14 00:49:53;;;;;;;;;;;;;;;;;;5007982;28;19922;-77
2022/05/14 00:52:20;;;;;;;;;;;;;;;;;;4992495;28;19922;-77
2022/05/14 00:54:45;;;;;;;;;;;;;;;;;;4992810;28;20300;-76
2022/05/14 00:57:11;;;;;;;;;;;;;;;;;;5008103;28;19921;-76
2022/05/14 00:59:37;;;;;;;;;;;;;;;;;;5008155;28;19968;-77
2022/05/14 01:02:06;;;;;;;;;;;;;;;;;;5007200;28;20202;-77
2022/05/14 01:04:32;;;;;;;;;;;;;;;;;;5006948;28;19922;-77
2022/05/14 01:06:57;;;;;;;;;;;;;;;;;;5006961;28;19922;-77
2022/05/14 01:09:23;;;;;;;;;;;;;;;;;;5007699;28;20364;-77
2022/05/14 01:11:49;;;;;;;;;;;;;;;;;;5007324;28;19929;-77
2022/05/14 01:14:15;;;;;;;;;;;;;;;;;;4991558;28;19922;-76
2022/05/14 01:16:41;;;;;;;;;;;;;;;;;;5007226;28;20249;-77
2022/05/14 01:19:07;;;;;;;;;;;;;;;;;;5006727;28;19926;-77
2022/05/14 01:21:33;;;;;;;;;;;;;;;;;;5007416;28;20261;-77
2022/05/14 01:27:00;;;;;;;;;;;;;;;;;;4935252;29;20333;-77
2022/05/14 01:29:26;;;;;;;;;;;;;;;;;;4977690;28;20060;-78
2022/05/14 01:31:52;;;;;;;;;;;;;;;;;;5007491;28;19921;-76
2022/05/14 01:34:18;;;;;;;;;;;;;;;;;;5006761;28;20387;-77
2022/05/14 01:36:44;;;;;;;;;;;;;;;;;;5007801;28;20360;-77
2022/05/14 01:39:10;;;;;;;;;;;;;;;;;;4990939;28;19922;-77
2022/05/14 01:41:36;;;;;;;;;;;;;;;;;;5006939;28;19969;-77
2022/05/14 01:44:02;;;;;;;;;;;;;;;;;;5004622;28;19953;-77
2022/05/14 01:46:28;;;;;;;;;;;;;;;;;;5007136;28;19921;-76
2022/05/14 01:48:54;;;;;;;;;;;;;;;;;;5006766;28;19918;-77
2022/05/14 01:51:20;;;;;;;;;;;;;;;;;;5006282;28;19924;-76
2022/05/14 01:53:46;;;;;;;;;;;;;;;;;;4992124;28;19922;-76
2022/05/14 01:56:12;;;;;;;;;;;;;;;;;;4990951;28;19922;-76
2022/05/14 01:58:38;;;;;;;;;;;;;;;;;;5007365;28;19929;-77
2022/05/14 02:01:04;;;;;;;;;;;;;;;;;;5005600;28;19922;-77
2022/05/14 02:03:30;;;;;;;;;;;;;;;;;;5007163;28;19922;-77
2022/05/14 02:05:56;;;;;;;;;;;;;;;;;;5005773;28;19921;-76
2022/05/14 02:08:22;;;;;;;;;;;;;;;;;;5006323;28;19951;-76
2022/05/14 02:10:47;;;;;;;;;;;;;;;;;;5006558;28;19926;-77
2022/05/14 02:13:13;;;;;;;;;;;;;;;;;;4990763;28;19926;-76
2022/05/14 02:15:39;;;;;;;;;;;;;;;;;;5007089;28;19968;-76
2022/05/14 02:18:05;;;;;;;;;;;;;;;;;;5005484;28;20360;-77
2022/05/14 02:20:31;;;;;;;;;;;;;;;;;;5005918;28;20368;-77
2022/05/14 02:22:57;;;;;;;;;;;;;;;;;;5006458;28;20375;-76
2022/05/14 02:25:23;;;;;;;;;;;;;;;;;;4990653;28;20427;-76
2022/05/14 02:27:49;;;;;;;;;;;;;;;;;;5006682;28;20418;-77
2022/05/14 02:30:15;;;;;;;;;;;;;;;;;;4990124;28;19922;-77
2022/05/14 02:32:41;;;;;;;;;;;;;;;;;;5007041;28;20032;-76
2022/05/14 02:35:07;;;;;;;;;;;;;;;;;;4991352;28;19925;-77
2022/05/14 02:37:33;;;;;;;;;;;;;;;;;;4991073;28;19945;-77
2022/05/14 02:39:59;;;;;;;;;;;;;;;;;;5007306;28;19964;-76
2022/05/14 02:42:25;;;;;;;;;;;;;;;;;;5005908;28;20341;-76
2022/05/14 02:44:51;;;;;;;;;;;;;;;;;;4990861;28;20483;-76
2022/05/14 02:47:16;;;;;;;;;;;;;;;;;;5006385;28;20279;-77
2022/05/14 02:49:42;;;;;;;;;;;;;;;;;;4991362;28;19922;-76
2022/05/14 02:52:08;;;;;;;;;;;;;;;;;;4990479;28;20016;-76
2022/05/14 02:54:34;;;;;;;;;;;;;;;;;;4991126;28;19968;-76
2022/05/14 02:57:00;;;;;;;;;;;;;;;;;;4993851;28;19928;-76
2022/05/14 02:59:26;;;;;;;;;;;;;;;;;;4994733;28;19922;-77
2022/05/14 03:01:53;;;;;;;;;;;;;;;;;;5009469;28;20444;-77
2022/05/14 03:04:20;;;;;;;;;;;;;;;;;;4994316;28;19973;-76
2022/05/14 03:06:46;;;;;;;;;;;;;;;;;;5009645;28;19921;-76
2022/05/14 03:09:12;;;;;;;;;;;;;;;;;;5009765;28;19971;-76
2022/05/14 03:11:38;;;;;;;;;;;;;;;;;;5010144;28;19922;-76
2022/05/14 03:14:04;;;;;;;;;;;;;;;;;;4993956;28;20361;-76
2022/05/14 03:16:30;;;;;;;;;;;;;;;;;;5009557;28;19926;-76
2022/05/14 03:18:56;;;;;;;;;;;;;;;;;;4994190;28;19929;-76
2022/05/14 03:21:22;;;;;;;;;;;;;;;;;;5009120;28;19965;-76
2022/05/14 03:23:49;;;;;;;;;;;;;;;;;;5009135;28;19928;-76
2022/05/14 03:26:15;;;;;;;;;;;;;;;;;;4993006;28;20023;-76
2022/05/14 03:28:41;;;;;;;;;;;;;;;;;;5009932;28;19969;-76
2022/05/14 03:31:07;;;;;;;;;;;;;;;;;;5009549;28;19921;-77
2022/05/14 03:33:33;;;;;;;;;;;;;;;;;;5009730;28;19925;-77
2022/05/14 03:35:59;;;;;;;;;;;;;;;;;;4993318;28;20342;-77
2022/05/14 03:38:25;;;;;;;;;;;;;;;;;;4993425;28;19922;-76
2022/05/14 03:40:51;;;;;;;;;;;;;;;;;;5010017;28;20012;-76
2022/05/14 03:43:17;;;;;;;;;;;;;;;;;;4993782;28;20381;-76
2022/05/14 03:45:43;;;;;;;;;;;;;;;;;;4992931;28;20288;-76
2022/05/14 03:48:09;;;;;;;;;;;;;;;;;;5009104;28;19928;-77
2022/05/14 03:50:35;;;;;;;;;;;;;;;;;;4992646;28;19921;-77
2022/05/14 03:53:01;;;;;;;;;;;;;;;;;;5009147;28;19922;-76
2022/05/14 03:55:27;;;;;;;;;;;;;;;;;;4993314;28;20016;-76
2022/05/14 03:57:52;;;;;;;;;;;;;;;;;;5009190;28;19929;-76
2022/05/14 04:00:19;;;;;;;;;;;;;;;;;;5009204;28;19922;-76
2022/05/14 04:02:45;;;;;;;;;;;;;;;;;;5008260;28;19922;-77
2022/05/14 04:05:11;;;;;;;;;;;;;;;;;;4992088;28;19928;-78
2022/05/14 04:07:37;;;;;;;;;;;;;;;;;;5007497;28;19925;-77
2022/05/14 04:10:04;;;;;;;;;;;;;;;;;;4993930;28;19925;-77
2022/05/14 04:12:30;;;;;;;;;;;;;;;;;;4993200;28;19922;-77
2022/05/14 04:14:56;;;;;;;;;;;;;;;;;;5007916;28;20061;-77
2022/05/14 04:17:22;;;;;;;;;;;;;;;;;;5007888;28;19922;-77
2022/05/14 04:19:47;;;;;;;;;;;;;;;;;;5008360;28;19922;-77
2022/05/14 04:22:13;;;;;;;;;;;;;;;;;;5007929;28;20365;-77
2022/05/14 04:24:39;;;;;;;;;;;;;;;;;;5008291;28;19925;-77
2022/05/14 04:27:05;;;;;;;;;;;;;;;;;;5008567;28;20000;-77
2022/05/14 04:29:31;;;;;;;;;;;;;;;;;;4993299;28;19930;-78
2022/05/14 04:31:57;;;;;;;;;;;;;;;;;;5008568;28;19921;-78
2022/05/14 04:34:23;;;;;;;;;;;;;;;;;;5008655;28;19925;-76
2022/05/14 04:36:49;;;;;;;;;;;;;;;;;;5008012;28;19976;-76
2022/05/14 04:39:15;;;;;;;;;;;;;;;;;;4992978;28;20272;-77
2022/05/14 04:41:42;;;;;;;;;;;;;;;;;;5008298;28;19922;-76
2022/05/14 04:44:08;;;;;;;;;;;;;;;;;;4992926;28;19922;-77
2022/05/14 04:46:33;;;;;;;;;;;;;;;;;;4993236;28;20153;-77
2022/05/14 04:48:59;;;;;;;;;;;;;;;;;;5007296;28;19917;-81
2022/05/14 04:51:25;;;;;;;;;;;;;;;;;;5007747;28;19928;-77
2022/05/14 04:53:51;;;;;;;;;;;;;;;;;;4992283;28;20006;-77
2022/05/14 04:56:17;;;;;;;;;;;;;;;;;;5008158;28;19922;-78
2022/05/14 04:58:43;;;;;;;;;;;;;;;;;;5007802;28;19925;-77
2022/05/14 05:01:09;;;;;;;;;;;;;;;;;;4991374;28;19922;-77
2022/05/14 05:03:36;;;;;;;;;;;;;;;;;;5007419;28;19922;-78
2022/05/14 05:06:02;;;;;;;;;;;;;;;;;;5007733;28;19921;-77
2022/05/14 05:08:28;;;;;;;;;;;;;;;;;;5006923;28;19976;-77
2022/05/14 05:10:54;;;;;;;;;;;;;;;;;;5007278;28;19933;-77
2022/05/14 05:13:20;;;;;;;;;;;;;;;;;;4991777;28;19922;-78
2022/05/14 05:15:46;;;;;;;;;;;;;;;;;;5007779;28;20319;-78
2022/05/14 05:18:11;;;;;;;;;;;;;;;;;;5007917;28;19922;-78
2022/05/14 05:20:37;;;;;;;;;;;;;;;;;;5007908;28;19921;-79
2022/05/14 05:23:03;;;;;;;;;;;;;;;;;;5008365;28;19977;-78
2022/05/14 05:25:29;;;;;;;;;;;;;;;;;;5006431;28;19922;-80
2022/05/14 05:27:55;;;;;;;;;;;;;;;;;;4990715;28;19922;-79
2022/05/14 05:30:21;;;;;;;;;;;;;;;;;;4990042;28;19937;-78
2022/05/14 05:32:47;;;;;;;;;;;;;;;;;;4990783;28;19943;-77
2022/05/14 05:35:13;;;;;;;;;;;;;;;;;;5007270;28;19925;-75
2022/05/14 05:37:39;;;;;;;;;;;;;;;;;;5008258;28;19921;-77
2022/05/14 05:40:05;;;;;;;;;;;;;;;;;;5008662;28;19940;-77
2022/05/14 05:42:32;;;;;;;;;;;;;;;;;;4992070;28;19922;-78
2022/05/14 05:44:58;;;;;;;;;;;;;;;;;;4992090;28;19922;-77
2022/05/14 05:47:24;;;;;;;;;;;;;;;;;;4992285;28;20013;-76
2022/05/14 05:49:50;;;;;;;;;;;;;;;;;;4992857;28;19922;-77
2022/05/14 05:52:16;;;;;;;;;;;;;;;;;;5008411;28;19971;-77
2022/05/14 05:57:26;;;;;;;;;;;;;;;;;;4992260;28;20319;-78
2022/05/14 05:59:52;;;;;;;;;;;;;;;;;;5007373;28;20012;-74
2022/05/14 06:02:18;;;;;;;;;;;;;;;;;;5008434;28;19976;-76
2022/05/14 06:04:44;;;;;;;;;;;;;;;;;;4993181;28;19926;-77
2022/05/14 06:07:10;;;;;;;;;;;;;;;;;;5008131;28;19928;-77
2022/05/14 06:09:36;;;;;;;;;;;;;;;;;;4990145;28;20000;-78
2022/05/14 06:12:02;;;;;;;;;;;;;;;;;;4991831;28;20023;-77
2022/05/14 06:14:28;;;;;;;;;;;;;;;;;;5003783;28;19921;-79
2022/05/14 06:16:54;;;;;;;;;;;;;;;;;;5005163;28;20372;-76
2022/05/14 06:19:20;;;;;;;;;;;;;;;;;;5006142;28;19984;-76
2022/05/14 06:21:46;;;;;;;;;;;;;;;;;;4992822;28;19921;-75
2022/05/14 06:24:12;;;;;;;;;;;;;;;;;;4993295;28;19988;-75
2022/05/14 06:26:38;;;;;;;;;;;;;;;;;;4992080;28;19929;-75
2022/05/14 06:29:04;;;;;;;;;;;;;;;;;;4993208;28;19929;-75
2022/05/14 06:31:30;;;;;;;;;;;;;;;;;;5010821;28;19921;-76
2022/05/14 06:33:56;;;;;;;;;;;;;;;;;;5011992;28;20439;-75
2022/05/14 06:36:22;;;;;;;;;;;;;;;;;;5011651;28;20341;-76
2022/05/14 06:38:48;;;;;;;;;;;;;;;;;;5011985;28;19928;-75
2022/05/14 06:41:14;;;;;;;;;;;;;;;;;;4996703;28;19926;-74
2022/05/14 06:43:40;;;;;;;;;;;;;;;;;;4996785;28;19926;-75
2022/05/14 06:46:06;;;;;;;;;;;;;;;;;;4996093;28;20296;-75
2022/05/14 06:48:32;;;;;;;;;;;;;;;;;;4996451;28;19925;-75
2022/05/14 06:50:58;;;;;;;;;;;;;;;;;;5011575;28;20012;-75
2022/05/14 06:53:24;;;;;;;;;;;;;;;;;;5012120;28;20289;-76
2022/05/14 06:55:49;;;;;;;;;;;;;;;;;;5010887;28;20246;-75
2022/05/14 06:58:15;;;;;;;;;;;;;;;;;;4996268;28;19928;-76
2022/05/14 07:00:41;;;;;;;;;;;;;;;;;;4995883;28;19976;-76
2022/05/14 07:08:37;;;;;;;;;;;;;;;;;;4994984;28;19921;-75
2022/05/14 07:11:03;;;;;;;;;;;;;;;;;;4995123;28;19921;-75
2022/05/14 07:13:29;;;;;;;;;;;;;;;;;;4995990;28;20016;-76
2022/05/14 07:15:55;;;;;;;;;;;;;;;;;;5011095;28;19977;-75
2022/05/14 07:18:20;;;;;;;;;;;;;;;;;;5011314;28;20365;-75
2022/05/14 07:20:47;;;;;;;;;;;;;;;;;;5010923;28;19922;-75
2022/05/14 07:23:13;;;;;;;;;;;;;;;;;;4996254;28;20353;-75
2022/05/14 07:25:39;;;;;;;;;;;;;;;;;;5010658;28;19921;-75
2022/05/14 07:28:05;;;;;;;;;;;;;;;;;;5011622;28;20311;-75
2022/05/14 07:30:32;;;;;;;;;;;;;;;;;;4995208;28;20318;-76
2022/05/14 07:32:58;;;;;;;;;;;;;;;;;;4996192;28;19944;-75
2022/05/14 07:35:24;;;;;;;;;;;;;;;;;;4995070;28;19925;-75
2022/05/14 07:37:50;;;;;;;;;;;;;;;;;;4994104;28;19921;-77
2022/05/14 07:40:16;;;;;;;;;;;;;;;;;;4995693;28;19976;-80
2022/05/14 07:42:42;;;;;;;;;;;;;;;;;;5009237;28;19928;-76
2022/05/14 07:45:07;;;;;;;;;;;;;;;;;;5010969;28;20426;-76
2022/05/14 07:47:33;;;;;;;;;;;;;;;;;;4995058;28;20595;-78
2022/05/14 07:49:59;;;;;;;;;;;;;;;;;;5010588;28;19921;-76
2022/05/14 07:52:25;;;;;;;;;;;;;;;;;;5009843;28;19922;-77
2022/05/14 07:54:51;;;;;;;;;;;;;;;;;;5009615;28;19929;-77
2022/05/14 07:57:18;;;;;;;;;;;;;;;;;;5009738;28;19922;-77
2022/05/14 07:59:44;;;;;;;;;;;;;;;;;;4993553;28;20313;-75
2022/05/14 08:02:10;;;;;;;;;;;;;;;;;;4992757;28;20024;-76
2022/05/14 08:04:36;;;;;;;;;;;;;;;;;;4993164;28;20348;-77
2022/05/14 08:07:02;;;;;;;;;;;;;;;;;;5008963;28;19921;-76
2022/05/14 08:09:30;;;;;;;;;;;;;;;;;;4992817;28;19987;-76
2022/05/14 08:11:58;;;;;;;;;;;;;;;;;;4993379;28;20434;-75
2022/05/14 08:14:25;;;;;;;;;;;;;;;;;;4994181;28;20013;-76
2022/05/14 08:16:51;;;;;;;;;;;;;;;;;;4994074;28;19921;-75
2022/05/14 08:19:17;;;;;;;;;;;;;;;;;;4995149;28;19944;-76
2022/05/14 08:24:34;;;;;;;;;;;;;;;;;;4993709;28;19976;-77
2022/05/14 08:27:00;;;;;;;;;;;;;;;;;;4994183;28;20024;-77
2022/05/14 08:29:26;;;;;;;;;;;;;;;;;;4994805;28;19952;-76
2022/05/14 08:31:52;;;;;;;;;;;;;;;;;;5008724;28;20360;-76
2022/05/14 08:34:18;;;;;;;;;;;;;;;;;;5010152;28;20357;-76
2022/05/14 08:36:44;;;;;;;;;;;;;;;;;;4993702;28;19925;-77
2022/05/14 08:39:10;;;;;;;;;;;;;;;;;;4994759;28;19922;-76
2022/05/14 08:41:36;;;;;;;;;;;;;;;;;;4993412;28;19929;-76
2022/05/14 08:44:02;;;;;;;;;;;;;;;;;;5009222;28;20020;-77
2022/05/14 08:46:28;;;;;;;;;;;;;;;;;;5009227;28;19922;-77
2022/05/14 08:48:53;;;;;;;;;;;;;;;;;;5009387;28;19922;-78
2022/05/14 08:51:19;;;;;;;;;;;;;;;;;;5009291;28;19928;-75
2022/05/14 08:53:45;;;;;;;;;;;;;;;;;;4992713;28;20017;-75
2022/05/14 08:56:11;;;;;;;;;;;;;;;;;;5008623;28;20005;-76
2022/05/14 08:58:37;;;;;;;;;;;;;;;;;;4993328;28;19925;-76
2022/05/14 09:01:03;;;;;;;;;;;;;;;;;;4993925;28;19973;-76
2022/05/14 09:03:29;;;;;;;;;;;;;;;;;;4993854;28;19975;-76
2022/05/14 09:05:55;;;;;;;;;;;;;;;;;;4994013;28;19917;-75
2022/05/14 09:08:21;;;;;;;;;;;;;;;;;;5008728;28;19944;-75
2022/05/14 09:10:47;;;;;;;;;;;;;;;;;;4992938;28;19922;-72
2022/05/14 09:13:13;;;;;;;;;;;;;;;;;;4993460;28;19926;-74
2022/05/14 09:15:39;;;;;;;;;;;;;;;;;;4992288;28;19925;-74
2022/05/14 09:18:05;;;;;;;;;;;;;;;;;;4992975;28;20024;-75
2022/05/14 09:20:31;;;;;;;;;;;;;;;;;;4993744;28;19922;-74
2022/05/14 09:22:57;;;;;;;;;;;;;;;;;;5007818;28;19918;-74
2022/05/14 09:25:24;;;;;;;;;;;;;;;;;;4993570;28;19926;-74
2022/05/14 09:27:50;;;;;;;;;;;;;;;;;;4993119;28;19925;-75
2022/05/14 09:30:16;;;;;;;;;;;;;;;;;;4993536;28;19928;-74
2022/05/14 09:32:42;;;;;;;;;;;;;;;;;;4993018;28;19973;-74
2022/05/14 09:35:08;;;;;;;;;;;;;;;;;;4993529;28;20258;-75
2022/05/14 09:37:34;;;;;;;;;;;;;;;;;;4993157;28;20200;-75
2022/05/14 09:40:00;;;;;;;;;;;;;;;;;;4992772;28;19928;-75
2022/05/14 09:42:26;;;;;;;;;;;;;;;;;;5008717;28;19922;-74
2022/05/14 09:44:52;;;;;;;;;;;;;;;;;;4993038;28;20394;-74
2022/05/14 09:47:18;;;;;;;;;;;;;;;;;;4992979;28;20257;-74
2022/05/14 09:49:44;;;;;;;;;;;;;;;;;;5007750;28;19933;-74
2022/05/14 09:52:09;;;;;;;;;;;;;;;;;;4993547;28;19922;-74
2022/05/14 09:54:35;;;;;;;;;;;;;;;;;;4993151;28;20442;-75
2022/05/14 09:57:01;;;;;;;;;;;;;;;;;;4992827;28;20262;-74
2022/05/14 09:59:27;;;;;;;;;;;;;;;;;;5007757;28;20291;-75
2022/05/14 10:01:53;;;;;;;;;;;;;;;;;;4992753;28;19987;-75
2022/05/14 10:04:19;;;;;;;;;;;;;;;;;;4992257;28;19925;-74
2022/05/14 10:06:45;;;;;;;;;;;;;;;;;;4992441;28;20262;-75
2022/05/14 10:09:11;;;;;;;;;;;;;;;;;;4993021;28;19921;-74
2022/05/14 10:11:37;;;;;;;;;;;;;;;;;;4991433;28;19969;-74
2022/05/14 10:14:03;;;;;;;;;;;;;;;;;;4992596;28;19996;-75
2022/05/14 10:16:29;;;;;;;;;;;;;;;;;;5008255;28;20353;-75
2022/05/14 10:18:55;;;;;;;;;;;;;;;;;;4991909;28;20365;-74
2022/05/14 10:21:21;;;;;;;;;;;;;;;;;;5008306;28;19921;-73
2022/05/14 10:26:47;;;;;;;;;;;;;;;;;;4992649;28;20348;-75
2022/05/14 10:29:12;;;;;;;;;;;;;;;;;;4992586;28;19928;-73
2022/05/14 10:31:38;;;;;;;;;;;;;;;;;;4992237;28;20020;-75
2022/05/14 10:34:05;;;;;;;;;;;;;;;;;;5007312;28;19925;-76
2022/05/14 10:36:30;;;;;;;;;;;;;;;;;;4992715;28;19992;-75
2022/05/14 10:38:56;;;;;;;;;;;;;;;;;;4991187;28;20376;-74
2022/05/14 10:41:22;;;;;;;;;;;;;;;;;;4992697;28;20420;-75
2022/05/14 10:43:48;;;;;;;;;;;;;;;;;;4991346;28;20384;-77
2022/05/14 10:46:14;;;;;;;;;;;;;;;;;;4991513;28;20411;-75
2022/05/14 10:48:42;;;;;;;;;;;;;;;;;;4991888;28;20376;-76
2022/05/14 10:51:07;;;;;;;;;;;;;;;;;;5006939;28;20013;-74
2022/05/14 10:53:33;;;;;;;;;;;;;;;;;;4991638;28;20019;-75
2022/05/14 10:55:59;;;;;;;;;;;;;;;;;;4990390;28;19928;-75
2022/05/14 10:58:36;;;;;;;;;;;;;;;;;;5006334;28;20357;-75
2022/05/14 11:01:02;;;;;;;;;;;;;;;;;;5006424;28;19929;-75
2022/05/14 11:03:29;;;;;;;;;;;;;;;;;;4990488;28;19929;-75
2022/05/14 11:05:55;;;;;;;;;;;;;;;;;;4990877;28;20353;-73
2022/05/14 11:08:21;;;;;;;;;;;;;;;;;;4992361;28;19928;-74
2022/05/14 11:10:47;;;;;;;;;;;;;;;;;;4992170;28;19965;-74
2022/05/14 11:13:13;;;;;;;;;;;;;;;;;;4990687;28;19926;-75
2022/05/14 11:15:39;;;;;;;;;;;;;;;;;;4992390;28;20024;-74
2022/05/14 11:18:05;;;;;;;;;;;;;;;;;;4994568;28;20542;-74
2022/05/14 11:20:31;;;;;;;;;;;;;;;;;;5011785;28;19929;-74
2022/05/14 11:22:57;;;;;;;;;;;;;;;;;;4994722;28;20482;-75
2022/05/14 11:25:23;;;;;;;;;;;;;;;;;;4994253;28;19929;-76
2022/05/14 11:27:49;;;;;;;;;;;;;;;;;;4995842;28;20284;-74
2022/05/14 11:30:15;;;;;;;;;;;;;;;;;;4995197;28;19928;-73
2022/05/14 11:32:41;;;;;;;;;;;;;;;;;;4995233;28;20017;-74
2022/05/14 11:35:07;;;;;;;;;;;;;;;;;;4994705;28;20369;-74
2022/05/14 11:37:33;;;;;;;;;;;;;;;;;;4994739;28;20287;-74
2022/05/14 11:39:59;;;;;;;;;;;;;;;;;;4994185;28;19953;-73
2022/05/14 11:42:25;;;;;;;;;;;;;;;;;;5010457;28;20376;-73
2022/05/14 11:44:52;;;;;;;;;;;;;;;;;;4994858;28;19921;-73
2022/05/14 11:47:18;;;;;;;;;;;;;;;;;;4994880;28;19969;-73
2022/05/14 11:49:44;;;;;;;;;;;;;;;;;;4994011;28;20385;-73
2022/05/14 11:52:10;;;;;;;;;;;;;;;;;;4992045;28;19928;-76
2022/05/14 11:54:36;;;;;;;;;;;;;;;;;;5009438;28;19922;-74
2022/05/14 11:57:02;;;;;;;;;;;;;;;;;;5009373;28;20377;-72
2022/05/14 11:59:28;;;;;;;;;;;;;;;;;;4992967;28;19965;-75
2022/05/14 12:01:54;;;;;;;;;;;;;;;;;;4992873;28;19980;-77
2022/05/14 12:04:20;;;;;;;;;;;;;;;;;;5009365;28;19922;-79
2022/05/14 12:06:47;;;;;;;;;;;;;;;;;;5009558;28;19929;-79
2022/05/14 12:09:13;;;;;;;;;;;;;;;;;;4993378;28;19986;-78
2022/05/14 12:11:40;;;;;;;;;;;;;;;;;;4993666;28;20589;-79
2022/05/14 12:14:06;;;;;;;;;;;;;;;;;;4993414;28;19980;-79
2022/05/14 12:16:32;;;;;;;;;;;;;;;;;;5009828;28;19981;-79
2022/05/14 12:18:58;;;;;;;;;;;;;;;;;;5009543;28;19921;-78
2022/05/14 12:21:24;;;;;;;;;;;;;;;;;;5008866;28;19944;-79
2022/05/14 12:23:50;;;;;;;;;;;;;;;;;;5007991;28;19921;-81
2022/05/14 12:26:16;;;;;;;;;;;;;;;;;;5008713;28;19921;-81
2022/05/14 12:28:42;;;;;;;;;;;;;;;;;;5007270;28;20037;-82
2022/05/14 12:33:53;;;;;;;;;;;;;;;;;;4991611;28;20012;-80
2022/05/14 12:36:19;;;;;;;;;;;;;;;;;;4992532;28;20361;-82
2022/05/14 12:38:44;;;;;;;;;;;;;;;;;;5008759;28;20016;-76
2022/05/14 12:41:10;;;;;;;;;;;;;;;;;;4993170;28;19921;-74
2022/05/14 12:43:36;;;;;;;;;;;;;;;;;;4992833;28;19922;-77
2022/05/14 12:46:02;;;;;;;;;;;;;;;;;;5008483;28;19976;-76
2022/05/14 12:48:28;;;;;;;;;;;;;;;;;;4993058;28;19921;-77
2022/05/14 12:50:54;;;;;;;;;;;;;;;;;;5008117;28;19922;-78
2022/05/14 12:53:20;;;;;;;;;;;;;;;;;;5008674;28;19964;-76
2022/05/14 12:55:47;;;;;;;;;;;;;;;;;;5008525;28;20316;-76
2022/05/14 12:58:13;;;;;;;;;;;;;;;;;;5008002;28;20430;-76
2022/05/14 13:00:39;;;;;;;;;;;;;;;;;;5008914;28;19945;-77
2022/05/14 13:03:04;;;;;;;;;;;;;;;;;;5007991;28;20368;-76
2022/05/14 13:05:31;;;;;;;;;;;;;;;;;;5007878;28;20271;-76
2022/05/14 13:07:57;;;;;;;;;;;;;;;;;;4991624;28;19921;-79
2022/05/14 13:10:23;;;;;;;;;;;;;;;;;;5008766;28;19925;-76
2022/05/14 13:12:49;;;;;;;;;;;;;;;;;;4992486;28;19928;-76
2022/05/14 13:15:15;;;;;;;;;;;;;;;;;;5008317;28;20107;-76
2022/05/14 13:17:41;;;;;;;;;;;;;;;;;;5009062;28;19972;-76
2022/05/14 13:20:07;;;;;;;;;;;;;;;;;;5007480;28;19921;-78
2022/05/14 13:22:33;;;;;;;;;;;;;;;;;;5008172;28;19926;-77
2022/05/14 13:24:59;;;;;;;;;;;;;;;;;;4991331;28;20016;-77
2022/05/14 13:27:25;;;;;;;;;;;;;;;;;;4992535;28;19965;-75
2022/05/14 13:29:51;;;;;;;;;;;;;;;;;;5007347;28;19944;-77
2022/05/14 13:32:17;;;;;;;;;;;;;;;;;;4992834;28;19918;-76
2022/05/14 13:37:28;;;;;;;;;;;;;;;;;;4991817;28;20357;-76
2022/05/14 13:39:54;;;;;;;;;;;;;;;;;;4990927;28;19927;-75
2022/05/14 13:42:20;;;;;;;;;;;;;;;;;;4992096;28;19929;-75
2022/05/14 13:44:46;;;;;;;;;;;;;;;;;;5006746;28;20000;-76
2022/05/14 13:47:12;;;;;;;;;;;;;;;;;;5008551;28;19926;-76
2022/05/14 13:49:38;;;;;;;;;;;;;;;;;;4993535;28;19957;-76
2022/05/14 13:52:04;;;;;;;;;;;;;;;;;;5008526;28;20044;-75
2022/05/14 13:54:30;;;;;;;;;;;;;;;;;;4992877;28;19921;-75
2022/05/14 13:56:56;;;;;;;;;;;;;;;;;;5007976;28;19928;-75
2022/05/14 13:59:22;;;;;;;;;;;;;;;;;;5007683;28;20349;-75
2022/05/14 14:01:48;;;;;;;;;;;;;;;;;;5008341;28;19922;-75
2022/05/14 14:04:14;;;;;;;;;;;;;;;;;;4992683;28;19929;-75
2022/05/14 14:06:39;;;;;;;;;;;;;;;;;;4993347;28;20013;-75
2022/05/14 14:09:05;;;;;;;;;;;;;;;;;;5007910;28;19922;-75
2022/05/14 14:11:31;;;;;;;;;;;;;;;;;;5008254;28;19922;-75
2022/05/14 14:13:57;;;;;;;;;;;;;;;;;;5008465;28;19922;-75
2022/05/14 14:16:23;;;;;;;;;;;;;;;;;;5006849;28;20381;-77
2022/05/14 14:18:49;;;;;;;;;;;;;;;;;;5007928;28;20423;-77
2022/05/14 14:21:15;;;;;;;;;;;;;;;;;;5008262;28;20300;-74
2022/05/14 14:23:41;;;;;;;;;;;;;;;;;;4993202;28;20372;-75
2022/05/14 14:26:07;;;;;;;;;;;;;;;;;;5006897;28;20277;-75
2022/05/14 14:28:33;;;;;;;;;;;;;;;;;;5007986;28;19928;-75
2022/05/14 14:31:03;;;;;;;;;;;;;;;;;;4992720;28;19921;-74
2022/05/14 14:33:29;;;;;;;;;;;;;;;;;;4993100;28;19928;-75
2022/05/14 14:35:55;;;;;;;;;;;;;;;;;;5007895;28;19922;-74
2022/05/14 14:38:21;;;;;;;;;;;;;;;;;;4992432;28;20193;-73
2022/05/14 14:40:46;;;;;;;;;;;;;;;;;;4992230;28;19922;-74
2022/05/14 14:43:13;;;;;;;;;;;;;;;;;;4992793;28;20431;-74
2022/05/14 14:45:39;;;;;;;;;;;;;;;;;;4991314;28;20349;-74
2022/05/14 14:48:04;;;;;;;;;;;;;;;;;;4992133;28;20008;-72
2022/05/14 14:50:30;;;;;;;;;;;;;;;;;;4993282;28;20353;-74
2022/05/14 14:52:56;;;;;;;;;;;;;;;;;;4996353;28;20280;-73
2022/05/14 14:55:22;;;;;;;;;;;;;;;;;;4996229;28;20129;-75
2022/05/14 14:57:48;;;;;;;;;;;;;;;;;;4995711;28;19922;-75
2022/05/14 15:00:14;;;;;;;;;;;;;;;;;;4996087;28;19923;-75
2022/05/14 15:02:40;;;;;;;;;;;;;;;;;;4995901;28;19928;-75
2022/05/14 15:05:06;;;;;;;;;;;;;;;;;;4994906;28;19928;-75
2022/05/14 15:07:32;;;;;;;;;;;;;;;;;;4996073;28;19968;-76
2022/05/14 15:09:59;;;;;;;;;;;;;;;;;;4995732;28;19922;-74
2022/05/14 15:12:25;;;;;;;;;;;;;;;;;;4995649;28;20376;-76
2022/05/14 15:14:51;;;;;;;;;;;;;;;;;;4996017;28;19922;-75
2022/05/14 15:17:17;;;;;;;;;;;;;;;;;;4995796;28;19969;-75
2022/05/14 15:19:43;;;;;;;;;;;;;;;;;;4995233;28;19921;-76
2022/05/14 15:22:09;;;;;;;;;;;;;;;;;;4995538;28;20265;-75
2022/05/14 15:24:35;;;;;;;;;;;;;;;;;;4996367;28;20044;-77
2022/05/14 15:27:01;;;;;;;;;;;;;;;;;;4995849;28;20412;-76
2022/05/14 15:29:27;;;;;;;;;;;;;;;;;;4995260;28;20243;-77
2022/05/14 15:31:53;;;;;;;;;;;;;;;;;;5009977;28;19921;-79
2022/05/14 15:34:19;;;;;;;;;;;;;;;;;;4994275;28;19921;-79
2022/05/14 15:36:45;;;;;;;;;;;;;;;;;;5010302;28;20394;-79
2022/05/14 15:39:11;;;;;;;;;;;;;;;;;;4993414;28;20388;-78
2022/05/14 15:41:37;;;;;;;;;;;;;;;;;;5009514;28;19921;-78
2022/05/14 15:44:03;;;;;;;;;;;;;;;;;;4995352;28;20497;-79
2022/05/14 15:46:29;;;;;;;;;;;;;;;;;;5010623;28;19921;-79
2022/05/14 15:48:55;;;;;;;;;;;;;;;;;;5011064;28;20012;-78
2022/05/14 15:51:21;;;;;;;;;;;;;;;;;;4993850;28;19921;-78
2022/05/14 15:53:47;;;;;;;;;;;;;;;;;;5010982;28;19929;-78
2022/05/14 15:56:13;;;;;;;;;;;;;;;;;;5010596;28;20020;-78
2022/05/14 15:58:39;;;;;;;;;;;;;;;;;;5010645;28;19965;-78
2022/05/14 16:01:05;;;;;;;;;;;;;;;;;;4995551;28;20357;-78
2022/05/14 16:03:31;;;;;;;;;;;;;;;;;;4992986;28;20397;-78
2022/05/14 16:05:56;;;;;;;;;;;;;;;;;;5010509;28;19964;-77
2022/05/14 16:08:23;;;;;;;;;;;;;;;;;;5010188;28;19922;-77
2022/05/14 16:16:19;;;;;;;;;;;;;;;;;;4993817;28;19969;-78
2022/05/14 16:18:45;;;;;;;;;;;;;;;;;;5010008;28;19922;-78
2022/05/14 16:21:11;;;;;;;;;;;;;;;;;;5010166;28;19921;-79
2022/05/14 16:23:39;;;;;;;;;;;;;;;;;;5010258;28;19922;-77
2022/05/14 16:26:05;;;;;;;;;;;;;;;;;;5010157;28;19924;-78
2022/05/14 16:28:31;;;;;;;;;;;;;;;;;;5009773;28;19925;-78
2022/05/14 16:30:59;;;;;;;;;;;;;;;;;;4995053;28;19975;-78
2022/05/14 16:33:25;;;;;;;;;;;;;;;;;;5009898;28;19971;-79
2022/05/14 16:35:51;;;;;;;;;;;;;;;;;;5010279;28;20016;-77
2022/05/14 16:38:17;;;;;;;;;;;;;;;;;;4993438;28;19928;-77
2022/05/14 16:40:43;;;;;;;;;;;;;;;;;;5009990;28;19921;-77
2022/05/14 16:43:09;;;;;;;;;;;;;;;;;;5009629;28;19928;-77
2022/05/14 16:45:37;;;;;;;;;;;;;;;;;;5009924;28;20004;-78
2022/05/14 16:48:03;;;;;;;;;;;;;;;;;;5009757;28;19932;-77
2022/05/14 16:50:29;;;;;;;;;;;;;;;;;;5009493;28;19973;-77
2022/05/14 16:52:55;;;;;;;;;;;;;;;;;;5009606;28;19922;-77
2022/05/14 16:55:21;;;;;;;;;;;;;;;;;;5009674;28;20254;-77
2022/05/14 16:57:48;;;;;;;;;;;;;;;;;;4994326;28;19922;-78
2022/05/14 17:00:14;;;;;;;;;;;;;;;;;;5009651;28;19973;-77
2022/05/14 17:02:40;;;;;;;;;;;;;;;;;;4994051;28;19972;-78
2022/05/14 17:05:06;;;;;;;;;;;;;;;;;;5009918;28;19929;-78
2022/05/14 17:07:32;;;;;;;;;;;;;;;;;;4993466;28;20436;-78